createdAt,value
2023-01-29T00:02:22.209Z,3.13
2023-01-29T00:04:49.767Z,2.50
2023-01-29T00:07:16.715Z,1.27
2023-01-29T00:09:43.448Z,2.03
2023-01-29T00:12:10.281Z,2.63
2023-01-29T00:14:37.114Z,3.72
2023-01-29T00:17:03.957Z,3.85
2023-01-29T00:19:30.987Z,3.97
2023-01-29T00:21:58.324Z,2.67
2023-01-29T00:24:25.235Z,4.40
2023-01-29T00:26:52.369Z,2.55
2023-01-29T00:29:19.345Z,1.88
2023-01-29T00:31:47.536Z,3.30
2023-01-29T00:34:14.666Z,4.13
2023-01-29T00:36:44.333Z,3.00
2023-01-29T00:39:11.389Z,2.78
2023-01-29T00:41:56.541Z,3.73
2023-01-29T00:44:56.551Z,9.15
2023-01-29T00:47:35.891Z,10.02
2023-01-29T00:50:05.202Z,6.55
2023-01-29T00:52:31.941Z,4.95
2023-01-29T00:55:04.464Z,5.20
2023-01-29T00:57:34.231Z,4.20
2023-01-29T01:00:04.464Z,3.78
2023-01-29T01:02:53.752Z,2.88
2023-01-29T01:05:22.516Z,3.35
2023-01-29T01:07:59.916Z,4.25
2023-01-29T01:10:33.446Z,2.72
2023-01-29T01:13:11.181Z,3.25
2023-01-29T01:15:41.490Z,4.35
2023-01-29T01:18:13.887Z,1.20
2023-01-29T01:20:55.247Z,1.63
2023-01-29T01:23:26.480Z,4.30
2023-01-29T01:26:01.427Z,1.60
2023-01-29T01:28:32.554Z,3.20
2023-01-29T01:31:09.545Z,1.92
2023-01-29T01:33:41.187Z,1.30
2023-01-29T01:36:10.998Z,3.45
2023-01-29T01:38:45.305Z,3.45
2023-01-29T01:41:22.113Z,1.98
2023-01-29T01:43:54.427Z,1.40
2023-01-29T01:46:29.652Z,2.72
2023-01-29T01:49:45.339Z,1.55
2023-01-29T01:52:28.048Z,3.08
2023-01-29T01:55:01.163Z,1.55
2023-01-29T01:57:36.542Z,2.58
2023-01-29T02:00:21.344Z,2.47
2023-01-29T02:03:24.761Z,1.48
2023-01-29T02:06:15.698Z,2.28
2023-01-29T02:09:21.979Z,2.90
2023-01-29T02:11:52.453Z,4.82
2023-01-29T02:14:24.873Z,1.58
2023-01-29T02:16:58.471Z,2.38
2023-01-29T02:19:42.044Z,1.90
2023-01-29T02:25:50.213Z,2.60
2023-01-29T02:28:27.620Z,2.92
2023-01-29T02:31:38.331Z,1.88
2023-01-29T02:38:13.383Z,3.17
2023-01-29T02:44:51.758Z,2.35
2023-01-29T02:48:35.540Z,1.30
2023-01-29T02:51:22.011Z,1.13
2023-01-29T02:54:23.505Z,1.90
2023-01-29T02:57:04.941Z,1.95
2023-01-29T03:00:13.843Z,2.30
2023-01-29T03:03:25.901Z,2.15
2023-01-29T03:06:09.595Z,1.75
2023-01-29T03:08:47.088Z,2.28
2023-01-29T03:11:22.537Z,2.90
2023-01-29T03:14:19.101Z,0.50
2023-01-29T03:16:55.104Z,0.90
2023-01-29T03:19:42.482Z,2.13
2023-01-29T03:22:24.397Z,0.85
2023-01-29T03:25:19.855Z,1.05
2023-01-29T03:28:32.368Z,2.60
2023-01-29T03:31:24.537Z,1.58
2023-01-29T03:34:09.360Z,3.05
2023-01-29T03:36:56.952Z,1.58
2023-01-29T03:39:32.781Z,0.95
2023-01-29T03:42:11.686Z,1.35
2023-01-29T03:48:17.685Z,1.27
2023-01-29T03:51:05.992Z,2.53
2023-01-29T03:53:59.781Z,2.63
2023-01-29T03:59:54.730Z,2.57
2023-01-29T04:03:07.937Z,1.63
2023-01-29T04:06:36.516Z,1.08
2023-01-29T04:08:56.036Z,1.15
2023-01-29T04:11:38.552Z,3.15
2023-01-29T04:14:09.034Z,1.10
2023-01-29T04:16:46.093Z,1.88
2023-01-29T04:19:22.308Z,0.95
2023-01-29T04:22:03.232Z,1.65
2023-01-29T04:24:57.544Z,3.08
2023-01-29T04:27:56.811Z,0.75
2023-01-29T04:30:38.231Z,2.88
2023-01-29T04:33:49.857Z,1.10
2023-01-29T04:37:07.497Z,1.30
2023-01-29T04:39:56.245Z,2.03
2023-01-29T04:42:33.985Z,2.60
2023-01-29T04:48:02.249Z,0.75
2023-01-29T04:50:52.654Z,1.80
2023-01-29T04:53:49.275Z,0.85
2023-01-29T04:56:27.595Z,0.87
2023-01-29T04:59:21.804Z,1.63
2023-01-29T05:01:49.484Z,3.65
2023-01-29T05:04:20.626Z,0.55
2023-01-29T05:06:48.938Z,1.73
2023-01-29T05:09:17.540Z,1.23
2023-01-29T05:11:46.318Z,2.47
2023-01-29T05:14:17.180Z,0.80
2023-01-29T05:16:52.379Z,3.15
2023-01-29T05:19:19.290Z,0.75
2023-01-29T05:21:48.126Z,2.00
2023-01-29T05:24:24.114Z,2.42
2023-01-29T05:27:12.259Z,1.10
2023-01-29T05:29:46.250Z,1.83
2023-01-29T05:32:12.989Z,1.42
2023-01-29T05:34:39.976Z,3.60
2023-01-29T05:37:08.179Z,6.83
2023-01-29T05:39:35.331Z,5.32
2023-01-29T05:42:02.643Z,3.83
2023-01-29T05:44:29.467Z,5.72
2023-01-29T05:46:56.202Z,5.10
2023-01-29T05:49:23.094Z,5.80
2023-01-29T05:51:49.809Z,2.47
2023-01-29T05:54:16.665Z,2.58
2023-01-29T05:56:43.808Z,8.73
2023-01-29T05:59:10.563Z,1.90
2023-01-29T06:01:37.710Z,4.47
2023-01-29T06:04:04.866Z,3.10
2023-01-29T06:06:31.636Z,3.83
2023-01-29T06:08:58.632Z,6.47
2023-01-29T06:11:25.880Z,2.93
2023-01-29T06:13:52.732Z,5.57
2023-01-29T06:16:19.648Z,2.47
2023-01-29T06:18:46.473Z,2.72
2023-01-29T06:21:13.937Z,1.70
2023-01-29T06:23:40.945Z,3.08
2023-01-29T06:26:11.889Z,1.93
2023-01-29T06:28:38.980Z,2.03
2023-01-29T06:31:37.357Z,1.70
2023-01-29T06:33:55.185Z,4.32
2023-01-29T06:36:22.571Z,3.72
2023-01-29T06:38:49.747Z,3.00
2023-01-29T06:41:19.263Z,1.63
2023-01-29T06:43:49.504Z,2.50
2023-01-29T06:46:16.945Z,4.68
2023-01-29T06:48:44.201Z,9.55
2023-01-29T06:51:12.388Z,5.30
2023-01-29T06:53:40.315Z,12.10
2023-01-29T06:58:38.394Z,4.63
2023-01-29T07:01:06.770Z,5.70
2023-01-29T07:03:34.075Z,3.95
2023-01-29T07:06:01.541Z,2.88
2023-01-29T07:08:28.867Z,3.95
2023-01-29T07:11:01.262Z,1.80
2023-01-29T07:13:28.307Z,2.67
2023-01-29T07:15:58.752Z,2.07
2023-01-29T07:18:25.811Z,1.52
2023-01-29T07:20:52.710Z,1.48
2023-01-29T07:23:19.819Z,1.88
2023-01-29T07:25:47.322Z,4.10
2023-01-29T07:28:13.993Z,2.28
2023-01-29T07:30:40.897Z,1.52
2023-01-29T07:33:09.462Z,2.72
2023-01-29T07:35:40.382Z,2.95
2023-01-29T07:38:08.198Z,2.47
2023-01-29T07:40:34.904Z,1.85
2023-01-29T07:43:04.092Z,1.90
2023-01-29T07:45:31.648Z,1.67
2023-01-29T07:47:58.409Z,3.00
2023-01-29T07:50:26.352Z,3.35
2023-01-29T07:55:22.728Z,2.78
2023-01-29T07:57:56.418Z,2.15
2023-01-29T08:00:23.490Z,3.00
2023-01-29T08:02:50.221Z,2.67
2023-01-29T08:05:17.182Z,4.63
2023-01-29T08:07:44.850Z,2.95
2023-01-29T08:10:14.113Z,3.08
2023-01-29T08:12:40.953Z,3.20
2023-01-29T08:15:08.205Z,1.65
2023-01-29T08:17:35.131Z,3.05
2023-01-29T08:20:01.821Z,2.50
2023-01-29T08:22:28.558Z,3.50
2023-01-29T08:25:06.296Z,2.40
2023-01-29T08:27:34.757Z,2.35
2023-01-29T08:30:01.443Z,3.03
2023-01-29T08:32:28.483Z,1.70
2023-01-29T08:34:55.233Z,2.67
2023-01-29T08:37:22.392Z,2.05
2023-01-29T08:39:50.413Z,3.33
2023-01-29T08:44:44.557Z,3.67
2023-01-29T08:47:11.831Z,1.40
2023-01-29T08:49:38.778Z,1.92
2023-01-29T08:52:05.821Z,2.75
2023-01-29T08:54:32.745Z,3.80
2023-01-29T08:57:00.085Z,3.50
2023-01-29T08:59:27.090Z,1.30
2023-01-29T09:01:54.164Z,1.75
2023-01-29T09:04:21.356Z,2.50
2023-01-29T09:06:48.872Z,1.63
2023-01-29T09:09:16.365Z,2.40
2023-01-29T09:11:43.153Z,3.13
2023-01-29T09:14:12.566Z,2.33
2023-01-29T09:16:39.791Z,5.03
2023-01-29T09:19:08.648Z,2.05
2023-01-29T09:21:36.052Z,2.92
2023-01-29T09:24:03.761Z,10.68
2023-01-29T09:26:30.864Z,2.65
2023-01-29T09:28:58.444Z,5.60
2023-01-29T09:31:31.404Z,2.58
2023-01-29T09:33:59.128Z,3.13
2023-01-29T09:36:26.294Z,1.73
2023-01-29T09:38:53.795Z,1.08
2023-01-29T09:41:31.684Z,3.05
2023-01-29T09:44:03.827Z,1.63
2023-01-29T09:46:41.540Z,2.65
2023-01-29T09:49:33.317Z,2.45
2023-01-29T09:52:13.951Z,2.72
2023-01-29T09:55:12.693Z,7.45
2023-01-29T09:57:46.327Z,3.33
2023-01-29T10:00:54.435Z,5.50
2023-01-29T10:03:37.475Z,6.45
2023-01-29T10:06:10.262Z,3.08
2023-01-29T10:08:46.044Z,6.78
2023-01-29T10:11:27.701Z,4.60
2023-01-29T10:14:23.141Z,6.18
2023-01-29T10:16:55.619Z,2.65
2023-01-29T10:19:45.628Z,2.85
2023-01-29T10:22:51.339Z,5.57
2023-01-29T10:25:21.555Z,6.30
2023-01-29T10:27:54.621Z,5.97
2023-01-29T10:30:34.833Z,4.25
2023-01-29T10:33:06.994Z,3.42
2023-01-29T10:35:39.605Z,4.18
2023-01-29T10:38:22.806Z,4.10
2023-01-29T10:41:03.680Z,3.95
2023-01-29T10:43:38.943Z,4.40
2023-01-29T10:46:37.279Z,3.75
2023-01-29T10:49:13.533Z,6.28
2023-01-29T10:52:21.895Z,3.40
2023-01-29T10:54:54.606Z,4.53
2023-01-29T10:57:59.457Z,4.40
2023-01-29T11:00:31.516Z,13.68
2023-01-29T11:03:26.985Z,8.15
2023-01-29T11:06:07.588Z,6.53
2023-01-29T11:08:55.131Z,7.20
2023-01-29T11:11:26.641Z,4.60
2023-01-29T11:14:05.337Z,5.15
2023-01-29T11:16:33.518Z,4.90
2023-01-29T11:19:01.685Z,4.50
2023-01-29T11:21:29.848Z,3.40
2023-01-29T11:24:26.410Z,4.97
2023-01-29T11:26:57.341Z,8.68
2023-01-29T11:29:28.017Z,7.75
2023-01-29T11:31:55.655Z,3.63
2023-01-29T11:34:25.333Z,4.15
2023-01-29T11:36:59.418Z,4.05
2023-01-29T11:39:27.943Z,5.68
2023-01-29T11:41:59.172Z,4.68
2023-01-29T11:44:36.675Z,2.90
2023-01-29T11:47:12.226Z,7.18
2023-01-29T11:49:40.991Z,4.97
2023-01-29T11:52:10.719Z,6.10
2023-01-29T11:54:47.315Z,4.15
2023-01-29T11:57:35.845Z,5.47
2023-01-29T12:00:18.390Z,9.23
2023-01-29T12:03:07.327Z,5.40
2023-01-29T12:05:35.529Z,5.03
2023-01-29T12:08:02.977Z,4.78
2023-01-29T12:10:36.475Z,6.35
2023-01-29T12:13:12.600Z,5.55
2023-01-29T12:15:41.228Z,6.80
2023-01-29T12:18:33.609Z,6.95
2023-01-29T12:21:10.403Z,9.77
2023-01-29T12:23:55.191Z,7.47
2023-01-29T12:26:33.568Z,4.40
2023-01-29T12:29:14.662Z,4.55
2023-01-29T12:32:06.805Z,10.02
2023-01-29T12:34:46.746Z,9.70
2023-01-29T12:37:16.410Z,5.28
2023-01-29T12:39:43.187Z,5.15
2023-01-29T12:42:16.802Z,7.38
2023-01-29T12:44:52.523Z,4.45
2023-01-29T12:47:42.008Z,5.72
2023-01-29T12:50:22.109Z,5.70
2023-01-29T12:52:56.506Z,4.15
2023-01-29T12:55:29.133Z,6.82
2023-01-29T12:58:12.951Z,4.47
2023-01-29T13:00:44.148Z,5.75
2023-01-29T13:03:17.695Z,6.10
2023-01-29T13:05:53.533Z,4.03
2023-01-29T13:08:26.984Z,4.30
2023-01-29T13:10:55.280Z,3.80
2023-01-29T13:13:44.429Z,4.28
2023-01-29T13:16:13.983Z,2.63
2023-01-29T13:19:02.849Z,5.35
2023-01-29T13:21:35.184Z,4.80
2023-01-29T13:24:11.619Z,5.75
2023-01-29T13:26:39.860Z,3.75
2023-01-29T13:29:07.327Z,3.35
2023-01-29T13:31:37.840Z,2.67
2023-01-29T13:34:25.430Z,3.70
2023-01-29T13:36:55.276Z,4.90
2023-01-29T13:39:30.004Z,4.25
2023-01-29T13:41:59.347Z,7.93
2023-01-29T13:44:33.187Z,7.35
2023-01-29T13:47:30.712Z,5.07
2023-01-29T13:52:44.879Z,4.93
2023-01-29T13:55:15.566Z,4.38
2023-01-29T13:57:46.273Z,3.35
2023-01-29T14:00:22.217Z,5.60
2023-01-29T14:03:12.029Z,4.95
2023-01-29T14:05:43.460Z,3.47
2023-01-29T14:08:10.250Z,6.13
2023-01-29T14:10:37.970Z,4.95
2023-01-29T14:13:04.583Z,6.13
2023-01-29T14:15:36.527Z,3.55
2023-01-29T14:18:09.682Z,3.90
2023-01-29T14:20:47.350Z,4.03
2023-01-29T14:23:41.533Z,2.90
2023-01-29T14:26:32.839Z,3.83
2023-01-29T14:29:33.844Z,6.07
2023-01-29T14:32:07.731Z,8.15
2023-01-29T14:34:41.995Z,10.45
2023-01-29T14:37:15.040Z,38.60
2023-01-29T14:39:58.564Z,13.60
2023-01-29T14:42:30.799Z,9.85
2023-01-29T14:45:18.172Z,4.82
2023-01-29T14:47:55.871Z,6.22
2023-01-29T14:50:28.800Z,2.28
2023-01-29T14:53:09.860Z,10.48
2023-01-29T14:55:43.354Z,9.88
2023-01-29T14:58:15.870Z,8.75
2023-01-29T15:00:46.241Z,4.97
2023-01-29T15:03:20.259Z,5.25
2023-01-29T15:05:50.641Z,4.57
2023-01-29T15:08:30.328Z,6.22
2023-01-29T15:11:20.648Z,6.43
2023-01-29T15:14:08.951Z,5.30
2023-01-29T15:16:52.456Z,5.40
2023-01-29T15:19:34.802Z,5.97
2023-01-29T15:22:13.387Z,7.75
2023-01-29T15:24:41.975Z,7.40
2023-01-29T15:27:15.892Z,5.45
2023-01-29T15:29:47.105Z,7.38
2023-01-29T15:32:29.433Z,4.88
2023-01-29T15:34:57.792Z,4.47
2023-01-29T15:37:33.376Z,7.65
2023-01-29T15:40:02.708Z,5.88
2023-01-29T15:42:43.327Z,4.53
2023-01-29T15:45:32.080Z,8.25
2023-01-29T15:48:07.905Z,5.13
2023-01-29T15:50:39.452Z,7.13
2023-01-29T15:53:10.821Z,6.85
2023-01-29T15:55:38.442Z,6.82
2023-01-29T15:58:07.358Z,6.15
2023-01-29T16:00:34.710Z,4.88
2023-01-29T16:03:15.150Z,8.00
2023-01-29T16:05:42.357Z,9.40
2023-01-29T16:08:14.089Z,8.38
2023-01-29T16:10:42.418Z,7.00
2023-01-29T16:13:41.176Z,8.00
2023-01-29T16:16:24.839Z,9.05
2023-01-29T16:19:00.063Z,8.77
2023-01-29T16:21:33.781Z,13.45
2023-01-29T16:24:09.849Z,33.25
2023-01-29T16:26:49.045Z,28.52
2023-01-29T16:29:22.635Z,15.60
2023-01-29T16:31:54.026Z,12.13
2023-01-29T16:34:48.355Z,10.23
2023-01-29T16:37:32.056Z,8.10
2023-01-29T16:40:19.963Z,6.63
2023-01-29T16:45:28.688Z,8.25
2023-01-29T16:48:31.096Z,9.90
2023-01-29T16:51:06.995Z,7.13
2023-01-29T16:53:36.253Z,8.32
2023-01-29T16:56:10.112Z,10.52
2023-01-29T16:58:37.615Z,8.60
2023-01-29T17:01:05.220Z,10.10
2023-01-29T17:03:34.389Z,10.57
2023-01-29T17:06:21.983Z,8.82
2023-01-29T17:11:31.929Z,12.02
2023-01-29T17:13:59.874Z,15.02
2023-01-29T17:19:00.480Z,12.43
2023-01-29T17:21:29.512Z,11.63
2023-01-29T17:23:57.363Z,11.43
2023-01-29T17:26:25.163Z,10.18
2023-01-29T17:28:54.565Z,11.32
2023-01-29T17:31:22.522Z,10.68
2023-01-29T17:36:18.273Z,6.38
2023-01-29T17:38:46.703Z,13.98
2023-01-29T17:41:25.541Z,7.78
2023-01-29T17:43:53.292Z,10.77
2023-01-29T17:46:21.508Z,13.13
2023-01-29T17:48:55.635Z,17.33
2023-01-29T17:51:24.957Z,12.27
2023-01-29T17:53:52.451Z,14.73
2023-01-29T17:56:28.346Z,17.20
2023-01-29T18:01:41.192Z,16.55
2023-01-29T18:04:09.341Z,18.38
2023-01-29T18:06:37.454Z,18.63
2023-01-29T18:09:05.670Z,14.18
2023-01-29T18:11:36.542Z,14.52
2023-01-29T18:14:17.502Z,16.73
2023-01-29T18:17:11.046Z,13.07
2023-01-29T18:20:04.327Z,17.60
2023-01-29T18:22:32.804Z,11.98
2023-01-29T18:25:00.800Z,14.32
2023-01-29T18:27:39.772Z,13.73
2023-01-29T18:30:12.332Z,17.17
2023-01-29T18:33:21.610Z,17.17
2023-01-29T18:35:55.941Z,14.40
2023-01-29T18:39:41.799Z,12.32
2023-01-29T18:42:20.756Z,11.35
2023-01-29T18:45:20.356Z,16.42
2023-01-29T18:47:50.320Z,12.00
2023-01-29T18:50:44.712Z,10.85
2023-01-29T18:53:24.266Z,10.05
2023-01-29T18:56:12.680Z,10.32
2023-01-29T18:59:06.568Z,8.80
2023-01-29T19:01:51.389Z,11.77
2023-01-29T19:04:31.382Z,13.13
2023-01-29T19:07:00.595Z,9.52
2023-01-29T19:09:35.421Z,11.82
2023-01-29T19:12:19.896Z,10.50
2023-01-29T19:15:05.711Z,11.48
2023-01-29T19:17:49.352Z,10.02
2023-01-29T19:23:46.285Z,12.80
2023-01-29T19:26:24.011Z,10.60
2023-01-29T19:31:41.223Z,11.48
2023-01-29T19:34:12.495Z,11.40
2023-01-29T19:39:29.905Z,12.38
2023-01-29T19:42:19.720Z,11.48
2023-01-29T19:44:53.496Z,10.48
2023-01-29T19:47:22.492Z,10.02
2023-01-29T19:50:07.258Z,8.77
2023-01-29T19:52:51.169Z,9.77
2023-01-29T19:55:23.229Z,10.73
2023-01-29T19:58:08.507Z,11.60
2023-01-29T20:01:03.316Z,10.95
2023-01-29T20:04:14.171Z,10.85
2023-01-29T20:09:34.329Z,8.27
2023-01-29T20:12:06.779Z,9.80
2023-01-29T20:14:43.468Z,11.75
2023-01-29T20:22:51.911Z,13.18
2023-01-29T20:25:27.516Z,9.95
2023-01-29T20:28:01.817Z,12.93
2023-01-29T20:30:32.714Z,8.00
2023-01-29T20:36:15.468Z,14.82
2023-01-29T20:38:47.202Z,10.93
2023-01-29T20:41:28.815Z,14.38
2023-01-29T20:44:07.324Z,12.95
2023-01-29T20:46:39.652Z,15.32
2023-01-29T20:49:15.339Z,12.50
2023-01-29T20:52:08.535Z,14.40
2023-01-29T20:54:39.280Z,11.15
2023-01-29T20:57:22.428Z,12.52
2023-01-29T21:00:02.268Z,10.70
2023-01-29T21:02:33.903Z,10.15
2023-01-29T21:05:11.187Z,8.02
2023-01-29T21:07:45.346Z,8.07
2023-01-29T21:10:13.727Z,8.13
2023-01-29T21:12:41.832Z,9.00
2023-01-29T21:17:48.663Z,6.90
2023-01-29T21:20:16.029Z,7.07
2023-01-29T21:23:35.572Z,6.78
2023-01-29T21:26:17.725Z,5.68
2023-01-29T21:29:03.698Z,5.78
2023-01-29T21:31:43.207Z,5.82
2023-01-29T21:34:11.586Z,5.55
2023-01-29T21:36:54.349Z,5.50
2023-01-29T21:42:32.111Z,5.72
2023-01-29T21:44:59.675Z,5.93
2023-01-29T21:47:33.764Z,4.78
2023-01-29T21:52:47.159Z,4.95
2023-01-29T21:55:28.235Z,5.40
2023-01-29T21:58:31.974Z,5.10
2023-01-29T22:01:28.094Z,4.78
2023-01-29T22:03:51.235Z,5.20
2023-01-29T22:06:18.718Z,5.90
2023-01-29T22:08:49.572Z,3.72
2023-01-29T22:14:04.025Z,6.38
2023-01-29T22:16:38.457Z,9.15
2023-01-29T22:22:26.969Z,5.05
2023-01-29T22:25:09.686Z,5.95
2023-01-29T22:27:41.163Z,8.45
2023-01-29T22:30:12.584Z,8.50
2023-01-29T22:32:46.311Z,5.60
2023-01-29T22:35:51.513Z,8.27
2023-01-29T22:38:37.814Z,8.57
2023-01-29T22:41:21.625Z,8.85
2023-01-29T22:44:16.462Z,6.22
2023-01-29T22:47:10.245Z,5.65
2023-01-29T22:49:55.895Z,7.97
2023-01-29T22:52:49.006Z,5.70
2023-01-29T22:55:40.053Z,8.90
2023-01-29T22:58:28.279Z,6.63
2023-01-29T23:04:02.695Z,5.53
2023-01-29T23:06:30.263Z,5.40
2023-01-29T23:09:00.153Z,6.13
2023-01-29T23:11:41.675Z,7.15
2023-01-29T23:14:16.072Z,5.72
2023-01-29T23:16:49.583Z,4.72
2023-01-29T23:19:31.365Z,7.35
2023-01-29T23:22:32.443Z,6.50
2023-01-29T23:25:09.707Z,3.40
2023-01-29T23:28:12.626Z,7.05
2023-01-29T23:30:43.436Z,4.55
2023-01-29T23:33:12.225Z,3.17
2023-01-29T23:35:55.897Z,6.82
2023-01-29T23:38:27.192Z,5.38
2023-01-29T23:41:03.878Z,3.35
2023-01-29T23:43:32.090Z,4.55
2023-01-29T23:46:07.537Z,7.45
2023-01-29T23:48:50.179Z,6.85
2023-01-29T23:51:19.250Z,9.45
2023-01-29T23:53:49.043Z,5.97
2023-01-29T23:56:32.964Z,5.35
2023-01-29T23:59:09.624Z,4.68
